Guayaquil, Ecuador

11:48 PM ECT on March 27, 2015 (GMT -0500)
Jose Joaquin de Olmedo | | Change Station
CLOSE
Current Station
Airport
Location: Guayaquil,
Elevation: 30 ft
Nearby Weather Stations

Elev 30 ft 2.16 °S, 79.88 °W | Updated 48 minutes ago

Mostly Cloudy
Mostly Cloudy
81 °F
Feels Like 85 °F
N
2
Wind Variable Wind from SW

Today
High -- | Low -- °F
--% Chance of Precip.
Yesterday
High -- | Low -- °F
Precip. -- in
6:22 AM 6:27 PM
First Quarter, 59% visible
Pressure 29.89 in
Visibility 6.2 miles
Clouds Mostly Cloudy 2300 ft
Mostly Cloudy 10000 ft
Heat Index 85 °F
Dew Point 72 °F
Humidity 74%
Rainfall 0.00 in
Snow Depth Not available.
UV 0 out of 12
Pollen Not available.
Air Quality Not available.
Flu Activity Not available.
METAR SEGU 280400Z 23002KT 9999 BKN023 BKN100 27/22 Q1012 NOSIG RMK A2991

More Conditions Fewer Conditions

Pressure 29.89 in
Visibility 6.2 miles
Clouds Mostly Cloudy 2300 ft
Mostly Cloudy 10000 ft
Heat Index 85 °F
Dew Point 72 °F
Humidity 74%
Rainfall 0.00 in
Snow Depth Not available.
UV 0 out of 12
Pollen Not available.
Air Quality Not available.
Flu Activity Not available.
METAR SEGU 280400Z 23002KT 9999 BKN023 BKN100 27/22 Q1012 NOSIG RMK A2991

More Conditions Fewer Conditions

10-Day Weather Forecast

Almanac

Astronomy

Mar. 27, 2015 Rise Set
Actual Time
Civil Twilight
Nautical Twilight
Astronomical Twilight
Moon
Length of Visible Light
Length of Day
Tomorrow will be .
, % of the Moon is Illuminated

Today's Extremes

Country Highs Country Lows

Community

WunderPhotos

Upload Photos

1,808,928 photos uploaded!

WunderBlogs® & News

Nearby

Air Quality

  Air Quality AQ Index Pollutant
Not available.

Snow Depth

Station Depth Elevation

Earthquake Activity

City Distance Mag. Time & Date
Minimum magnitude displayed is 2.5.

Coastal Water Temperatures

Place Temperature

Stations

Nearby Weather Stations

Station Location Temp. Windchill Dew Point Humidity Wind Precip. Elev Updated Type